Time;durP1;ratioP1;P1;durP2;ratioP2;P2;SDS_P1;SDS_P2;PMS_P1;PMS_P2;Temp;Humidity;BMP_temperature;BMP_pressure;BME280_temperature;BME280_humidity;BME280_pressure;Samples;Min_cycle;Max_cycle;Signal;HPM_P1;HPM_P2
2022/04/15 00:01:32;;;;;;;47.72;22.88;;;;;13.70;96724.00;;;;8396565;28;20659;-70
2022/04/15 00:05:37;;;;;;;43.70;23.17;;;;;13.70;96710.00;;;;8396523;28;20223;-70
2022/04/15 00:09:41;;;;;;;46.55;23.15;;;;;13.80;96720.00;;;;8396715;28;20225;-71
2022/04/15 00:13:45;;;;;;;48.75;23.27;;;;;13.80;96712.00;;;;8396485;28;20628;-71
2022/04/15 00:17:49;;;;;;;46.88;23.48;;;;;13.90;96715.00;;;;8396223;28;20222;-71
2022/04/15 00:22:23;;;;;;;48.03;24.13;;;;;13.80;96717.00;;;;8396390;28;20711;-71
2022/04/15 00:26:28;;;;;;;53.15;24.13;;;;;13.80;96714.00;;;;8395614;28;20624;-72
2022/04/15 00:30:31;;;;;;;49.78;23.27;;;;;13.80;96728.00;;;;8397014;28;20747;-71
2022/04/15 00:35:05;;;;;;;45.00;23.92;;;;;13.70;96726.00;;;;8395429;28;20306;-71
2022/04/15 00:39:09;;;;;;;46.63;23.92;;;;;13.70;96727.00;;;;8395311;28;20251;-71
2022/04/15 00:43:13;;;;;;;47.88;23.65;;;;;13.60;96722.00;;;;8395898;28;20303;-71
2022/04/15 00:47:31;;;;;;;49.25;23.83;;;;;13.50;96722.00;;;;8395179;28;20218;-69
2022/04/15 00:51:56;;;;;;;47.22;23.77;;;;;13.50;96729.00;;;;8394473;28;20237;-71
2022/04/15 00:56:01;;;;;;;49.22;23.58;;;;;13.50;96728.00;;;;8394439;28;20668;-70
2022/04/15 01:00:08;;;;;;;47.33;24.00;;;;;13.50;96722.00;;;;8394737;28;20672;-70
2022/04/15 01:04:41;;;;;;;49.22;25.13;;;;;13.50;96726.00;;;;8394630;28;20639;-70
2022/04/15 01:08:45;;;;;;;52.65;25.30;;;;;13.50;96725.00;;;;8395070;28;20232;-71
2022/04/15 01:12:51;;;;;;;57.05;25.83;;;;;13.50;96729.00;;;;8394215;28;20305;-71
2022/04/15 01:17:16;;;;;;;47.30;24.67;;;;;13.50;96728.00;;;;8394300;28;20229;-70
2022/04/15 01:21:55;;;;;;;51.13;24.70;;;;;13.50;96729.00;;;;8394910;28;20300;-70
2022/04/15 01:26:00;;;;;;;47.92;24.55;;;;;13.50;96726.00;;;;8360277;28;20218;-71
2022/04/15 01:30:04;;;;;;;49.33;24.80;;;;;13.50;96743.00;;;;8361164;28;20760;-71
2022/04/15 01:34:38;;;;;;;48.83;24.58;;;;;13.50;96735.00;;;;8360971;28;20262;-70
2022/04/15 01:38:41;;;;;;;47.95;22.83;;;;;13.60;96741.00;;;;8391745;28;20340;-70
2022/04/15 01:42:48;;;;;;;47.85;24.50;;;;;13.60;96735.00;;;;8393675;28;20254;-69
2022/04/15 01:46:54;;;;;;;47.28;23.95;;;;;13.70;96735.00;;;;8394321;28;20663;-71
2022/04/15 01:51:34;;;;;;;50.13;24.60;;;;;13.70;96734.00;;;;8393386;28;20581;-70
2022/04/15 01:55:37;;;;;;;48.92;24.52;;;;;13.60;96745.00;;;;8393407;28;20214;-69
2022/04/15 01:59:42;;;;;;;56.13;25.73;;;;;13.60;96745.00;;;;8393886;28;20305;-69
2022/04/15 02:03:45;;;;;;;56.95;26.30;;;;;13.60;96731.00;;;;8393422;28;20290;-71
2022/04/15 02:07:49;;;;;;;51.15;25.05;;;;;13.60;96733.00;;;;8397849;28;20631;-70
2022/04/15 02:12:25;;;;;;;53.10;26.13;;;;;13.40;96728.00;;;;8400225;28;20229;-71
2022/04/15 02:16:30;;;;;;;52.63;25.13;;;;;13.30;96731.00;;;;8398784;28;20286;-71
2022/04/15 02:21:07;;;;;;;51.90;25.70;;;;;13.00;96728.00;;;;8399518;28;20259;-71
2022/04/15 02:25:10;;;;;;;53.15;24.08;;;;;12.70;96731.00;;;;8399185;28;20296;-70
2022/04/15 02:29:13;;;;;;;52.05;22.55;;;;;12.50;96742.00;;;;8398744;28;20611;-71
2022/04/15 02:33:49;;;;;;;419.73;32.95;;;;;12.10;96733.00;;;;8398832;28;20305;-70
2022/04/15 02:37:52;;;;;;;67.78;22.58;;;;;11.80;96741.00;;;;8399050;28;20224;-70
2022/04/15 02:41:56;;;;;;;79.70;23.95;;;;;11.60;96752.00;;;;8398722;28;20299;-70
2022/04/15 02:46:00;;;;;;;76.23;25.27;;;;;11.20;96746.00;;;;8399143;28;20232;-71
2022/04/15 02:50:33;;;;;;;62.20;25.30;;;;;11.00;96744.00;;;;8397377;28;20740;-71
2022/04/15 02:54:38;;;;;;;66.00;26.23;;;;;10.90;96747.00;;;;8397969;28;20251;-70
2022/04/15 02:58:41;;;;;;;65.70;23.80;;;;;10.80;96742.00;;;;8398172;28;20310;-71
2022/04/15 03:02:44;;;;;;;65.70;23.30;;;;;10.50;96749.00;;;;8369090;22;20613;-74
2022/04/15 03:06:47;;;;;;;68.17;24.87;;;;;10.30;96749.00;;;;8246070;28;21258;-74
2022/04/15 03:10:52;;;;;;;98.23;26.00;;;;;10.20;96751.00;;;;8250643;28;20234;-76
2022/04/15 03:14:55;;;;;;;86.93;27.97;;;;;10.20;96759.00;;;;8255362;28;20226;-72
2022/04/15 03:18:58;;;;;;;83.10;26.57;;;;;10.10;96767.00;;;;8246000;28;20238;-73
2022/04/15 03:23:01;;;;;;;69.63;24.90;;;;;10.10;96764.00;;;;8253843;28;20262;-74
2022/04/15 03:27:07;;;;;;;78.90;23.23;;;;;10.10;96760.00;;;;8252362;28;20900;-72
2022/04/15 03:31:10;;;;;;;71.13;25.80;;;;;10.00;96761.00;;;;8254182;28;20759;-72
2022/04/15 03:35:16;;;;;;;62.17;24.13;;;;;10.00;96772.00;;;;8251257;28;20222;-73
2022/04/15 03:39:19;;;;;;;345.63;31.23;;;;;9.90;96769.00;;;;8257243;28;20621;-73
2022/04/15 03:43:24;;;;;;;88.03;24.53;;;;;9.80;96773.00;;;;8257630;28;20332;-74
2022/04/15 03:47:27;;;;;;;113.50;26.20;;;;;9.60;96776.00;;;;8253480;28;20249;-72
2022/04/15 03:51:30;;;;;;;118.83;25.27;;;;;9.60;96774.00;;;;8253636;28;20242;-73
2022/04/15 03:55:33;;;;;;;323.47;30.13;;;;;9.40;96779.00;;;;8237298;28;20230;-72
2022/04/15 03:59:37;;;;;;;110.37;22.93;;;;;9.20;96777.00;;;;8251109;28;20301;-74
2022/04/15 04:03:41;;;;;;;119.10;23.53;;;;;9.10;96778.00;;;;8258398;28;20242;-72
2022/04/15 04:07:45;;;;;;;467.00;30.20;;;;;9.00;96784.00;;;;8265115;28;20226;-73
2022/04/15 04:11:48;;;;;;;754.30;45.47;;;;;9.00;96788.00;;;;8254123;28;20321;-76
2022/04/15 04:15:52;;;;;;;93.27;22.83;;;;;9.00;96788.00;;;;8248183;28;20329;-75
2022/04/15 04:19:55;;;;;;;119.10;22.90;;;;;8.90;96790.00;;;;8251325;28;20240;-74
2022/04/15 04:23:59;;;;;;;172.77;26.83;;;;;8.90;96789.00;;;;8245123;28;20980;-76
2022/04/15 04:28:02;;;;;;;313.83;28.90;;;;;8.80;96797.00;;;;8248617;28;20326;-74
2022/04/15 04:32:07;;;;;;;104.97;24.10;;;;;8.70;96795.00;;;;8251998;28;20234;-76
2022/04/15 04:36:11;;;;;;;274.47;28.67;;;;;8.70;96798.00;;;;8241282;28;20235;-71
2022/04/15 04:40:15;;;;;;;169.43;27.77;;;;;8.80;96805.00;;;;8248343;28;20218;-75
2022/04/15 04:44:19;;;;;;;116.80;24.60;;;;;8.80;96815.00;;;;8243124;28;20227;-72
2022/04/15 04:48:23;;;;;;;137.20;25.90;;;;;8.80;96815.00;;;;8249399;28;20236;-72
2022/04/15 04:52:27;;;;;;;184.53;26.00;;;;;8.80;96811.00;;;;8239449;28;20240;-71
2022/04/15 04:56:30;;;;;;;91.97;20.93;;;;;8.70;96813.00;;;;8239963;28;20330;-74
2022/04/15 05:00:33;;;;;;;97.70;23.80;;;;;8.70;96823.00;;;;8249944;28;20305;-70
2022/04/15 05:04:38;;;;;;;96.10;26.60;;;;;8.80;96826.00;;;;8253186;28;20265;-72
2022/04/15 05:08:41;;;;;;;431.20;33.23;;;;;9.10;96828.00;;;;8251648;28;20253;-72
2022/04/15 05:12:46;;;;;;;97.40;25.13;;;;;9.20;96826.00;;;;8249318;28;20312;-75
2022/04/15 05:16:49;;;;;;;75.27;23.43;;;;;9.30;96832.00;;;;8248539;28;20607;-71
2022/04/15 05:20:54;;;;;;;86.87;24.47;;;;;9.50;96843.00;;;;8250975;28;20256;-75
2022/04/15 05:24:57;;;;;;;78.00;26.80;;;;;9.70;96841.00;;;;8248174;28;20739;-74
2022/04/15 05:29:00;;;;;;;87.97;27.77;;;;;10.00;96842.00;;;;8248064;28;20602;-75
2022/04/15 05:33:04;;;;;;;90.73;30.67;;;;;10.30;96845.00;;;;8246437;28;20228;-72
2022/04/15 05:37:10;;;;;;;89.63;27.77;;;;;10.60;96851.00;;;;8242373;28;20315;-72
2022/04/15 05:41:13;;;;;;;98.00;30.53;;;;;10.80;96848.00;;;;8246284;28;20222;-70
2022/04/15 05:45:16;;;;;;;90.63;29.53;;;;;11.10;96856.00;;;;8253172;28;20253;-73
2022/04/15 05:49:20;;;;;;;95.63;30.58;;;;;11.40;96861.00;;;;8256806;28;20238;-73
2022/04/15 05:53:24;;;;;;;87.43;29.47;;;;;11.60;96859.00;;;;8251194;28;20219;-72
2022/04/15 05:57:28;;;;;;;79.07;26.83;;;;;11.80;96855.00;;;;8254839;28;20230;-75
2022/04/15 06:01:31;;;;;;;76.40;27.93;;;;;11.90;96858.00;;;;8252599;28;20230;-71
2022/04/15 06:05:34;;;;;;;67.10;25.85;;;;;12.10;96858.00;;;;8255170;28;20317;-73
2022/04/15 06:09:39;;;;;;;68.97;26.48;;;;;12.30;96865.00;;;;8256174;28;20393;-72
2022/04/15 06:13:47;;;;;;;65.10;24.23;;;;;12.40;96863.00;;;;8249787;28;20310;-72
2022/04/15 06:17:50;;;;;;;64.72;24.83;;;;;12.50;96867.00;;;;8251038;28;20766;-69
2022/04/15 06:21:53;;;;;;;67.18;25.42;;;;;12.70;96869.00;;;;8254142;28;20238;-68
2022/04/15 06:26:00;;;;;;;61.03;23.98;;;;;12.80;96874.00;;;;8252884;28;20236;-68
2022/04/15 06:30:05;;;;;;;64.60;23.65;;;;;12.90;96879.00;;;;8252420;28;20683;-68
2022/04/15 06:34:09;;;;;;;56.88;22.17;;;;;13.10;96876.00;;;;8249587;28;20309;-67
2022/04/15 06:38:12;;;;;;;59.20;23.85;;;;;13.20;96883.00;;;;8252248;28;20222;-67
2022/04/15 06:42:16;;;;;;;56.85;22.15;;;;;13.30;96883.00;;;;8251358;28;20254;-67
2022/04/15 06:46:20;;;;;;;56.80;22.35;;;;;13.40;96881.00;;;;8242361;28;20961;-69
2022/04/15 06:50:24;;;;;;;58.25;21.77;;;;;13.60;96881.00;;;;8252720;28;20227;-71
2022/04/15 06:54:27;;;;;;;53.03;21.98;;;;;13.70;96882.00;;;;8256252;28;20282;-69
2022/04/15 06:58:32;;;;;;;42.50;20.13;;;;;13.90;96882.00;;;;8261050;28;20228;-70
2022/04/15 07:02:36;;;;;;;48.08;20.98;;;;;14.10;96888.00;;;;8255214;28;20232;-68
2022/04/15 07:06:39;;;;;;;40.80;19.98;;;;;14.30;96885.00;;;;8252340;28;20248;-69
2022/04/15 07:10:42;;;;;;;42.58;20.48;;;;;14.50;96886.00;;;;8251567;28;20937;-70
2022/04/15 07:14:47;;;;;;;41.53;19.65;;;;;14.70;96889.00;;;;8249066;28;20228;-66
2022/04/15 07:18:51;;;;;;;35.38;17.92;;;;;14.90;96884.00;;;;8251550;28;20261;-67
2022/04/15 07:22:58;;;;;;;30.77;16.60;;;;;15.20;96883.00;;;;8251427;28;20265;-66
2022/04/15 07:27:02;;;;;;;30.92;17.30;;;;;15.50;96882.00;;;;8253657;28;20233;-67
2022/04/15 07:31:07;;;;;;;25.65;14.68;;;;;16.00;96892.00;;;;8247873;28;20245;-71
2022/04/15 07:35:10;;;;;;;29.08;16.27;;;;;16.70;96900.00;;;;8248578;28;20291;-69
2022/04/15 07:39:15;;;;;;;23.08;14.23;;;;;17.30;96899.00;;;;8257409;28;20234;-68
2022/04/15 07:43:18;;;;;;;24.08;14.32;;;;;17.80;96896.00;;;;8253283;28;20237;-68
2022/04/15 07:47:23;;;;;;;20.95;13.38;;;;;18.30;96899.00;;;;8252481;28;20229;-70
2022/04/15 07:51:46;;;;;;;19.50;12.38;;;;;18.60;96903.00;;;;8249075;28;20230;-72
2022/04/15 07:55:50;;;;;;;17.85;10.52;;;;;18.90;96907.00;;;;8250154;28;20226;-69
2022/04/15 07:59:53;;;;;;;16.67;10.88;;;;;18.40;96903.00;;;;8250717;28;20782;-72
2022/04/15 08:03:58;;;;;;;14.38;10.05;;;;;18.20;96906.00;;;;8248567;28;20223;-72
2022/04/15 08:08:01;;;;;;;21.13;12.43;;;;;18.30;96901.00;;;;8248870;28;20222;-68
2022/04/15 08:12:08;;;;;;;19.15;11.70;;;;;18.70;96901.00;;;;8247424;28;20269;-68
2022/04/15 08:16:11;;;;;;;15.57;10.55;;;;;18.90;96905.00;;;;8249547;28;20235;-69
2022/04/15 08:20:16;;;;;;;16.83;10.73;;;;;19.30;96906.00;;;;8245777;28;20222;-71
2022/04/15 08:24:20;;;;;;;14.60;9.82;;;;;19.70;96912.00;;;;8249294;28;20582;-70
2022/04/15 08:28:23;;;;;;;15.55;10.50;;;;;20.20;96920.00;;;;8249163;28;20229;-71
2022/04/15 08:32:32;;;;;;;16.80;10.63;;;;;20.20;96917.00;;;;8248769;28;20246;-71
2022/04/15 08:36:44;;;;;;;18.35;11.35;;;;;20.50;96916.00;;;;8253474;28;20288;-68
2022/04/15 08:40:49;;;;;;;15.77;11.57;;;;;20.40;96909.00;;;;8249499;28;20313;-68
2022/04/15 08:44:54;;;;;;;14.02;10.40;;;;;20.20;96906.00;;;;8250262;28;20333;-69
2022/04/15 08:48:57;;;;;;;18.17;12.68;;;;;19.70;96920.00;;;;8250419;28;20230;-68
2022/04/15 08:53:03;;;;;;;21.60;12.57;;;;;19.70;96912.00;;;;8248319;28;20680;-70
2022/04/15 08:57:08;;;;;;;19.48;11.13;;;;;20.20;96916.00;;;;8245846;28;20652;-70
2022/04/15 09:01:11;;;;;;;19.27;13.10;;;;;20.50;96919.00;;;;8248592;28;20590;-71
2022/04/15 09:05:19;;;;;;;18.70;12.27;;;;;19.90;96912.00;;;;8250733;28;20239;-72
2022/04/15 09:09:29;;;;;;;17.67;13.23;;;;;20.20;96918.00;;;;8250156;28;20309;-71
2022/04/15 09:13:34;;;;;;;20.75;13.20;;;;;21.20;96920.00;;;;8249941;28;20240;-73
2022/04/15 09:17:39;;;;;;;18.38;13.10;;;;;22.30;96922.00;;;;8248041;28;20230;-71
2022/04/15 09:21:49;;;;;;;20.13;12.55;;;;;22.10;96922.00;;;;8247516;28;20380;-71
2022/04/15 09:25:54;;;;;;;19.52;13.63;;;;;21.90;96916.00;;;;8245134;28;20923;-72
2022/04/15 09:29:58;;;;;;;19.75;14.32;;;;;22.60;96929.00;;;;8248700;28;20236;-72
2022/04/15 09:34:03;;;;;;;18.13;12.93;;;;;23.20;96910.00;;;;8251665;28;20270;-72
2022/04/15 09:38:07;;;;;;;20.70;13.20;;;;;23.50;96914.00;;;;8250719;28;20917;-73
2022/04/15 09:42:14;;;;;;;18.67;12.80;;;;;23.30;96918.00;;;;8248949;28;20338;-72
2022/04/15 09:46:17;;;;;;;16.98;12.43;;;;;22.80;96929.00;;;;8250292;28;20218;-73
2022/04/15 09:50:26;;;;;;;20.15;13.13;;;;;22.10;96935.00;;;;8248356;28;20227;-71
2022/04/15 09:54:31;;;;;;;17.48;13.43;;;;;21.50;96926.00;;;;8243558;28;20254;-70
2022/04/15 09:58:37;;;;;;;16.25;12.40;;;;;21.60;96910.00;;;;8240182;28;20679;-72
2022/04/15 10:02:43;;;;;;;15.40;11.02;;;;;22.10;96921.00;;;;8245776;28;20242;-71
2022/04/15 10:06:47;;;;;;;18.83;14.00;;;;;21.60;96920.00;;;;8247026;28;20895;-72
2022/04/15 10:10:51;;;;;;;16.52;12.32;;;;;21.40;96910.00;;;;8245815;28;20231;-72
2022/04/15 10:14:56;;;;;;;18.92;12.50;;;;;22.10;96910.00;;;;8247859;28;20250;-76
2022/04/15 10:19:01;;;;;;;18.17;12.73;;;;;21.60;96908.00;;;;8243162;28;20233;-72
2022/04/15 10:23:07;;;;;;;16.90;12.27;;;;;22.50;96905.00;;;;8244531;28;21780;-72
2022/04/15 10:27:13;;;;;;;16.13;12.30;;;;;23.40;96898.00;;;;8247144;28;20896;-72
2022/04/15 10:31:18;;;;;;;17.23;12.57;;;;;24.20;96896.00;;;;8252711;28;20234;-74
2022/04/15 10:35:23;;;;;;;16.35;12.00;;;;;24.80;96898.00;;;;8251597;28;20233;-76
2022/04/15 10:39:27;;;;;;;17.65;11.00;;;;;25.20;96893.00;;;;8256160;28;20229;-73
2022/04/15 10:43:31;;;;;;;16.20;11.75;;;;;24.50;96895.00;;;;8245955;28;20346;-72
2022/04/15 10:47:36;;;;;;;14.90;9.70;;;;;23.70;96896.00;;;;8250373;28;20227;-73
2022/04/15 10:51:39;;;;;;;14.27;10.40;;;;;22.80;96898.00;;;;8251876;28;20230;-72
2022/04/15 10:55:44;;;;;;;15.35;10.18;;;;;22.20;96898.00;;;;8253969;28;20688;-73
2022/04/15 11:04:13;;;;;;;14.60;10.10;;;;;20.70;96895.00;;;;8247650;28;20246;-71
2022/04/15 11:08:19;;;;;;;14.95;10.10;;;;;20.90;96886.00;;;;8251086;28;20310;-70
2022/04/15 11:12:43;;;;;;;14.63;10.23;;;;;21.50;96894.00;;;;8249251;28;20305;-70
2022/04/15 11:16:49;;;;;;;11.80;9.90;;;;;21.80;96880.00;;;;8250511;28;20652;-72
2022/04/15 11:20:54;;;;;;;15.48;10.48;;;;;21.80;96883.00;;;;8251904;28;20223;-69
2022/04/15 11:24:57;;;;;;;10.98;8.65;;;;;21.70;96883.00;;;;8252633;28;20265;-72
2022/04/15 11:29:02;;;;;;;10.70;8.55;;;;;21.70;96888.00;;;;8245583;28;20248;-72
2022/04/15 11:33:06;;;;;;;13.32;9.68;;;;;21.80;96879.00;;;;8249787;28;20261;-70
2022/04/15 11:37:11;;;;;;;12.95;9.23;;;;;22.80;96886.00;;;;8255410;28;20293;-71
2022/04/15 11:41:19;;;;;;;12.60;8.98;;;;;22.80;96884.00;;;;8250718;28;20234;-70
2022/04/15 11:45:32;;;;;;;11.18;8.48;;;;;22.10;96882.00;;;;8249970;28;20233;-70
2022/04/15 11:49:35;;;;;;;11.27;8.13;;;;;21.90;96881.00;;;;8250548;28;20333;-71
2022/04/15 11:53:39;;;;;;;9.57;7.45;;;;;21.90;96871.00;;;;8252155;28;20230;-71
2022/04/15 11:57:43;;;;;;;10.35;7.32;;;;;22.00;96869.00;;;;8249574;28;20799;-69
2022/04/15 12:01:46;;;;;;;10.35;7.43;;;;;22.10;96868.00;;;;8249082;28;20345;-70
2022/04/15 12:05:54;;;;;;;9.15;7.25;;;;;22.20;96868.00;;;;8249720;28;20223;-70
2022/04/15 12:10:00;;;;;;;10.20;6.68;;;;;22.20;96871.00;;;;8244688;28;20229;-70
2022/04/15 12:14:04;;;;;;;6.93;5.57;;;;;22.00;96855.00;;;;8242473;28;20235;-69
2022/04/15 12:18:07;;;;;;;7.53;6.10;;;;;22.40;96852.00;;;;8247613;28;20230;-72
2022/04/15 12:22:11;;;;;;;9.88;6.50;;;;;22.70;96856.00;;;;8245039;28;20882;-69
2022/04/15 12:26:16;;;;;;;9.85;6.15;;;;;22.10;96859.00;;;;8252799;28;20680;-66
2022/04/15 12:30:37;;;;;;;8.32;6.40;;;;;21.30;96861.00;;;;8252315;28;20780;-70
2022/04/15 12:34:42;;;;;;;8.73;6.30;;;;;21.00;96863.00;;;;8250288;28;20230;-69
2022/04/15 12:38:58;;;;;;;10.20;6.18;;;;;21.20;96846.00;;;;8252649;28;20325;-69
2022/04/15 12:43:13;;;;;;;6.68;5.20;;;;;21.40;96840.00;;;;8251200;28;20226;-68
2022/04/15 12:47:17;;;;;;;7.10;5.18;;;;;21.90;96833.00;;;;8250362;28;20244;-67
2022/04/15 12:51:20;;;;;;;6.35;5.15;;;;;22.50;96834.00;;;;8224789;28;20230;-67
2022/04/15 12:55:28;;;;;;;11.02;5.63;;;;;22.60;96835.00;;;;8247412;28;20242;-67
2022/04/15 12:59:33;;;;;;;9.00;5.50;;;;;21.80;96835.00;;;;8250402;28;20337;-66
2022/04/15 13:03:36;;;;;;;8.30;5.53;;;;;21.30;96833.00;;;;8244631;28;20658;-71
2022/04/15 13:07:39;;;;;;;6.25;5.00;;;;;20.90;96832.00;;;;8248254;28;20253;-68
2022/04/15 13:11:43;;;;;;;7.72;5.38;;;;;20.70;96836.00;;;;8240496;28;20223;-68
2022/04/15 13:15:48;;;;;;;6.82;4.72;;;;;20.50;96826.00;;;;8244458;28;20666;-68
2022/04/15 13:19:52;;;;;;;5.20;3.70;;;;;20.80;96820.00;;;;8244651;28;20219;-69
2022/04/15 13:23:59;;;;;;;5.25;4.35;;;;;21.40;96814.00;;;;8243492;28;20227;-69
2022/04/15 13:28:03;;;;;;;5.20;3.88;;;;;21.80;96812.00;;;;8240070;28;20298;-71
2022/04/15 13:32:08;;;;;;;4.40;4.00;;;;;21.50;96813.00;;;;8239654;28;20329;-69
2022/04/15 13:36:12;;;;;;;7.68;4.72;;;;;21.30;96802.00;;;;8241967;28;20633;-69
2022/04/15 13:40:15;;;;;;;4.15;3.60;;;;;21.60;96806.00;;;;8239676;28;20241;-71
2022/04/15 13:44:18;;;;;;;4.80;4.28;;;;;22.30;96806.00;;;;8238826;28;20222;-67
2022/04/15 13:48:23;;;;;;;5.03;4.15;;;;;23.00;96797.00;;;;8247016;28;20219;-69
2022/04/15 13:56:47;;;;;;;9.55;4.45;;;;;23.50;96809.00;;;;8246805;28;20980;-67
2022/04/15 14:00:50;;;;;;;4.43;3.17;;;;;24.10;96804.00;;;;8249568;28;20318;-67
2022/04/15 14:04:55;;;;;;;7.13;3.42;;;;;24.30;96817.00;;;;8256812;28;20341;-68
2022/04/15 14:08:58;;;;;;;4.00;3.60;;;;;23.40;96812.00;;;;8255923;28;20230;-67
2022/04/15 14:13:02;;;;;;;7.20;4.13;;;;;23.50;96810.00;;;;8265532;28;20341;-67
2022/04/15 14:17:06;;;;;;;10.00;3.28;;;;;23.40;96829.00;;;;8274626;28;20313;-66
2022/04/15 14:21:12;;;;;;;3.83;3.17;;;;;23.50;96813.00;;;;8254481;28;20755;-67
2022/04/15 14:25:15;;;;;;;3.63;3.40;;;;;23.30;96809.00;;;;8253608;28;20230;-67
2022/04/15 14:29:18;;;;;;;3.70;3.20;;;;;23.60;96817.00;;;;8254075;28;20321;-67
2022/04/15 14:33:21;;;;;;;3.05;2.75;;;;;23.80;96810.00;;;;8248217;28;20347;-67
2022/04/15 14:37:26;;;;;;;2.97;2.75;;;;;23.30;96820.00;;;;8249056;28;20258;-68
2022/04/15 14:41:29;;;;;;;2.00;1.90;;;;;23.20;96821.00;;;;8255504;28;20226;-67
2022/04/15 14:45:33;;;;;;;2.72;2.53;;;;;22.90;96826.00;;;;8268181;28;21568;-67
2022/04/15 14:49:36;;;;;;;3.55;2.10;;;;;22.80;96826.00;;;;8255443;28;20226;-67
2022/04/15 14:53:41;;;;;;;3.90;2.20;;;;;22.80;96835.00;;;;8255605;28;20330;-68
2022/04/15 14:57:44;;;;;;;2.25;1.70;;;;;22.10;96838.00;;;;8258936;28;20244;-67
2022/04/15 15:01:47;;;;;;;1.70;1.60;;;;;21.90;96831.00;;;;8255270;28;20285;-72
2022/04/15 15:05:50;;;;;;;1.30;1.30;;;;;21.80;96829.00;;;;8252288;28;20227;-67
2022/04/15 15:09:55;;;;;;;2.30;1.25;;;;;21.40;96826.00;;;;8255386;28;20265;-67
2022/04/15 15:13:58;;;;;;;1.30;1.20;;;;;21.10;96824.00;;;;8249243;28;20313;-69
2022/04/15 15:18:02;;;;;;;2.70;1.05;;;;;21.60;96827.00;;;;8250473;28;20309;-69
2022/04/15 15:22:05;;;;;;;1.48;1.40;;;;;22.10;96824.00;;;;8252406;28;20333;-69
2022/04/15 15:30:37;;;;;;;1.90;1.80;;;;;22.20;96835.00;;;;8252428;28;20226;-67
2022/04/15 15:34:41;;;;;;;1.25;1.15;;;;;22.20;96838.00;;;;8254842;28;20238;-68
2022/04/15 15:38:45;;;;;;;1.25;1.20;;;;;22.70;96828.00;;;;8253325;28;20710;-69
2022/04/15 15:42:49;;;;;;;3.03;1.58;;;;;23.00;96835.00;;;;8243918;28;20241;-67
2022/04/15 15:46:53;;;;;;;1.30;1.30;;;;;22.90;96831.00;;;;8249600;28;20227;-69
2022/04/15 15:50:56;;;;;;;1.85;1.23;;;;;22.80;96829.00;;;;8248980;28;21008;-66
2022/04/15 15:54:59;;;;;;;1.40;1.30;;;;;22.80;96841.00;;;;8247078;28;20222;-67
2022/04/15 15:59:04;;;;;;;1.70;1.60;;;;;22.50;96849.00;;;;8247404;28;20230;-69
2022/04/15 16:03:11;;;;;;;1.95;1.80;;;;;22.00;96838.00;;;;8242674;28;20235;-66
2022/04/15 16:07:14;;;;;;;2.85;1.83;;;;;21.40;96839.00;;;;8243229;28;20249;-68
2022/04/15 16:11:18;;;;;;;2.00;1.80;;;;;20.90;96847.00;;;;8243999;28;20247;-67
2022/04/15 16:15:23;;;;;;;2.67;1.67;;;;;20.30;96849.00;;;;8249751;28;20249;-67
2022/04/15 16:19:26;;;;;;;2.20;2.03;;;;;20.00;96847.00;;;;8253171;28;20452;-66
2022/04/15 16:23:30;;;;;;;1.80;1.70;;;;;20.00;96866.00;;;;8251102;28;20226;-66
2022/04/15 16:27:34;;;;;;;2.80;1.70;;;;;20.20;96850.00;;;;8248078;28;20238;-66
2022/04/15 16:31:38;;;;;;;1.90;1.77;;;;;20.60;96860.00;;;;8247912;28;20654;-66
2022/04/15 16:35:42;;;;;;;1.80;1.70;;;;;20.50;96857.00;;;;8249164;28;20230;-66
2022/04/15 16:39:46;;;;;;;2.80;1.95;;;;;20.40;96852.00;;;;8252976;28;20580;-67
2022/04/15 16:44:36;;;;;;;2.05;1.60;;;;;20.50;96856.00;;;;8260692;28;20225;-67
2022/04/15 16:48:40;;;;;;;1.77;1.50;;;;;20.60;96870.00;;;;8264180;28;20312;-67
2022/04/15 16:53:14;;;;;;;3.08;1.85;;;;;20.70;96863.00;;;;8264445;28;20314;-67
2022/04/15 17:02:12;;;;;;;6.90;4.28;;;;;19.70;96886.00;;;;8262773;28;20231;-67
2022/04/15 17:06:16;;;;;;;9.90;5.35;;;;;18.70;96896.00;;;;8264183;28;20610;-67
2022/04/15 17:10:55;;;;;;;8.43;5.18;;;;;17.30;96907.00;;;;8262791;28;20620;-66
2022/04/15 17:15:29;;;;;;;7.40;5.75;;;;;16.20;96915.00;;;;8262727;28;20227;-66
2022/04/15 17:20:07;;;;;;;11.00;5.55;;;;;15.50;96921.00;;;;8263515;28;20222;-66
2022/04/15 17:24:43;;;;;;;6.97;5.47;;;;;15.10;96918.00;;;;8263036;28;20313;-64
2022/04/15 17:29:17;;;;;;;8.55;5.82;;;;;14.70;96925.00;;;;8262500;28;20229;-64
2022/04/15 17:33:52;;;;;;;8.25;5.05;;;;;14.50;96940.00;;;;8263239;28;20241;-64
2022/04/15 17:38:30;;;;;;;6.55;5.10;;;;;14.20;96941.00;;;;8262209;28;20694;-65
2022/04/15 17:43:04;;;;;;;8.52;5.80;;;;;13.80;96958.00;;;;8260898;28;20301;-65
2022/04/15 17:47:43;;;;;;;9.45;5.55;;;;;13.50;96971.00;;;;8263176;28;20324;-65
2022/04/15 17:52:17;;;;;;;10.65;6.40;;;;;13.20;96966.00;;;;8262985;28;20556;-66
2022/04/15 17:56:53;;;;;;;9.88;5.80;;;;;13.00;96966.00;;;;8262092;28;20689;-65
2022/04/15 18:01:32;;;;;;;13.30;6.57;;;;;12.80;96979.00;;;;8262664;28;20230;-64
2022/04/15 18:06:10;;;;;;;9.35;5.80;;;;;12.50;96987.00;;;;8262442;28;20234;-64
2022/04/15 18:10:45;;;;;;;8.48;5.78;;;;;12.40;96992.00;;;;8261721;28;20258;-65
2022/04/15 18:15:21;;;;;;;10.65;6.25;;;;;12.20;97006.00;;;;8261885;28;20335;-66
2022/04/15 18:19:58;;;;;;;11.02;6.90;;;;;12.10;97017.00;;;;8262162;28;20238;-67
2022/04/15 18:24:36;;;;;;;13.05;5.57;;;;;11.90;97026.00;;;;8261946;28;20227;-65
2022/04/15 18:29:10;;;;;;;7.93;5.22;;;;;11.70;97030.00;;;;8261596;28;20314;-66
2022/04/15 18:33:47;;;;;;;8.13;5.57;;;;;11.60;97041.00;;;;8262457;28;20636;-66
2022/04/15 18:38:24;;;;;;;7.68;5.70;;;;;11.50;97048.00;;;;8261898;28;20301;-66
2022/04/15 18:43:05;;;;;;;8.70;4.60;;;;;11.50;97060.00;;;;8255309;28;20257;-67
2022/04/15 18:47:36;;;;;;;8.40;5.35;;;;;11.40;97057.00;;;;8268303;28;20219;-67
2022/04/15 18:56:49;;;;;;;6.18;4.72;;;;;11.20;97067.00;;;;8266861;28;20218;-67
2022/04/15 19:01:28;;;;;;;5.80;4.18;;;;;11.20;97066.00;;;;8266440;28;20219;-68
2022/04/15 19:06:02;;;;;;;6.65;3.75;;;;;11.20;97066.00;;;;8267204;28;20226;-67
2022/04/15 19:10:40;;;;;;;3.70;3.20;;;;;11.10;97066.00;;;;8267776;28;20692;-68
2022/04/15 19:15:14;;;;;;;3.57;3.27;;;;;11.00;97074.00;;;;8266644;28;20309;-67
2022/04/15 19:19:52;;;;;;;5.47;3.77;;;;;10.90;97086.00;;;;8267218;28;20556;-67
2022/04/15 19:24:26;;;;;;;6.10;3.70;;;;;10.90;97081.00;;;;8267157;28;20225;-67
2022/04/15 19:29:03;;;;;;;4.70;3.10;;;;;10.80;97089.00;;;;8266120;28;20229;-67
2022/04/15 19:33:40;;;;;;;4.47;3.08;;;;;10.70;97095.00;;;;8266304;28;20221;-66
2022/04/15 19:38:12;;;;;;;4.25;2.78;;;;;10.70;97095.00;;;;8265866;28;20226;-67
2022/04/15 19:42:47;;;;;;;3.03;2.57;;;;;10.60;97090.00;;;;8266593;28;20214;-66
2022/04/15 19:47:19;;;;;;;3.00;2.73;;;;;10.50;97104.00;;;;8264750;28;20302;-67
2022/04/15 19:51:56;;;;;;;3.40;2.70;;;;;10.40;97104.00;;;;8265556;28;20226;-66
2022/04/15 20:01:34;;;;;;;3.20;2.90;;;;;10.20;97099.00;;;;8264954;28;20219;-67
2022/04/15 20:06:09;;;;;;;5.33;3.20;;;;;10.10;97108.00;;;;8265062;28;20226;-67
2022/04/15 20:10:46;;;;;;;4.43;3.30;;;;;10.10;97119.00;;;;8265434;28;20630;-67
2022/04/15 20:15:23;;;;;;;3.20;2.83;;;;;10.10;97121.00;;;;8264372;28;20321;-68
2022/04/15 20:20:03;;;;;;;3.00;2.70;;;;;10.00;97117.00;;;;8265083;28;20225;-67
2022/04/15 20:24:38;;;;;;;3.13;2.87;;;;;10.00;97117.00;;;;8264919;28;20214;-67
2022/04/15 20:29:15;;;;;;;3.53;2.97;;;;;9.90;97122.00;;;;8265660;28;20314;-68
2022/04/15 20:33:53;;;;;;;3.60;3.10;;;;;9.80;97129.00;;;;8264443;28;20222;-67
2022/04/15 20:38:29;;;;;;;4.73;3.33;;;;;9.80;97124.00;;;;8263987;28;20310;-67
2022/04/15 20:43:03;;;;;;;3.83;3.43;;;;;9.70;97116.00;;;;8260845;28;20306;-67
2022/04/15 20:47:40;;;;;;;4.17;3.30;;;;;9.70;97122.00;;;;8264551;28;20297;-66
2022/04/15 20:52:16;;;;;;;3.93;2.93;;;;;9.60;97123.00;;;;8263664;28;20301;-67
2022/04/15 20:56:48;;;;;;;3.55;3.25;;;;;9.50;97125.00;;;;8263036;28;20629;-68
2022/04/15 21:01:29;;;;;;;3.30;3.00;;;;;9.40;97128.00;;;;8264895;28;20297;-67
2022/04/15 21:05:33;;;;;;;4.30;3.20;;;;;9.30;97127.00;;;;8263226;28;20305;-67